createdAt,value
2022-11-28T00:01:45.305Z,14.77
2022-11-28T00:04:13.334Z,13.23
2022-11-28T00:06:46.983Z,13.70
2022-11-28T00:09:17.042Z,15.02
2022-11-28T00:11:46.529Z,13.85
2022-11-28T00:14:15.298Z,13.68
2022-11-28T00:20:55.170Z,11.82
2022-11-28T00:24:24.932Z,13.93
2022-11-28T00:26:35.408Z,14.00
2022-11-28T00:29:19.490Z,14.25
2022-11-28T00:31:46.904Z,13.13
2022-11-28T00:34:16.085Z,10.98
2022-11-28T00:36:46.859Z,11.95
2022-11-28T00:39:15.562Z,11.73
2022-11-28T00:42:44.416Z,12.90
2022-11-28T00:45:11.735Z,11.93
2022-11-28T00:48:06.714Z,11.93
2022-11-28T00:55:37.824Z,12.30
2022-11-28T00:58:41.093Z,11.45
2022-11-28T01:07:12.877Z,11.38
2022-11-28T01:10:57.892Z,11.80
2022-11-28T01:13:50.088Z,12.48
2022-11-28T01:19:40.198Z,12.17
2022-11-28T01:22:07.425Z,13.15
2022-11-28T01:24:34.536Z,12.90
2022-11-28T01:27:01.665Z,12.15
2022-11-28T01:29:29.004Z,11.68
2022-11-28T01:31:57.623Z,11.23
2022-11-28T01:34:50.316Z,11.73
2022-11-28T01:37:31.382Z,13.02
2022-11-28T01:45:32.614Z,11.20
2022-11-28T01:48:03.588Z,13.30
2022-11-28T01:50:33.309Z,14.10
2022-11-28T01:53:06.757Z,13.38
2022-11-28T01:55:42.755Z,13.50
2022-11-28T01:58:11.486Z,12.85
2022-11-28T02:00:38.818Z,12.40
2022-11-28T02:03:17.778Z,12.65
2022-11-28T02:19:03.402Z,14.27
2022-11-28T02:23:40.301Z,12.07
2022-11-28T02:30:38.418Z,11.27
2022-11-28T02:33:37.163Z,12.00
2022-11-28T02:36:26.313Z,10.77
2022-11-28T02:39:14.538Z,11.77
2022-11-28T02:42:17.502Z,11.93
2022-11-28T02:47:35.728Z,12.88
2022-11-28T02:50:19.737Z,11.15
2022-11-28T02:52:53.059Z,12.07
2022-11-28T02:55:21.426Z,10.77
2022-11-28T02:57:53.616Z,11.20
2022-11-28T03:00:34.641Z,11.35
2022-11-28T03:03:35.875Z,11.60
2022-11-28T03:06:46.918Z,10.57
2022-11-28T03:09:32.249Z,11.82
2022-11-28T03:12:08.509Z,11.05
2022-11-28T03:14:44.554Z,11.32
2022-11-28T03:17:27.560Z,12.13
2022-11-28T03:20:06.624Z,11.88
2022-11-28T03:22:52.944Z,12.82
2022-11-28T03:25:34.235Z,11.27
2022-11-28T03:28:43.373Z,12.93
2022-11-28T03:31:18.518Z,11.93
2022-11-28T03:33:55.267Z,10.93
2022-11-28T03:36:35.939Z,11.02
2022-11-28T03:39:11.097Z,12.27
2022-11-28T03:42:10.081Z,11.18
2022-11-28T03:44:50.074Z,12.88
2022-11-28T03:47:17.230Z,10.85
2022-11-28T03:49:53.101Z,10.65
2022-11-28T03:52:30.137Z,11.40
2022-11-28T03:55:08.082Z,11.57
2022-11-28T03:57:51.102Z,10.52
2022-11-28T04:00:18.584Z,13.02
2022-11-28T04:03:46.354Z,12.02
2022-11-28T04:06:48.321Z,10.00
2022-11-28T04:09:26.237Z,10.68
2022-11-28T04:12:08.600Z,12.15
2022-11-28T04:14:50.999Z,12.77
2022-11-28T04:17:54.757Z,10.95
2022-11-28T04:20:53.971Z,13.98
2022-11-28T04:23:23.168Z,10.65
2022-11-28T04:25:58.189Z,13.00
2022-11-28T04:28:31.669Z,12.55
2022-11-28T04:31:02.509Z,11.23
2022-11-28T04:33:36.370Z,12.20
2022-11-28T04:36:06.027Z,11.15
2022-11-28T04:38:34.637Z,11.88
2022-11-28T04:41:10.474Z,11.93
2022-11-28T04:43:52.052Z,11.30
2022-11-28T04:46:27.100Z,12.27
2022-11-28T04:48:54.555Z,12.55
2022-11-28T04:51:41.494Z,12.73
2022-11-28T04:54:45.173Z,11.52
2022-11-28T04:57:27.675Z,11.52
2022-11-28T04:59:56.452Z,12.00
2022-11-28T05:02:25.750Z,13.07
2022-11-28T05:04:55.648Z,11.95
2022-11-28T05:07:24.341Z,14.20
2022-11-28T05:09:52.022Z,12.80
2022-11-28T05:12:19.324Z,14.15
2022-11-28T05:14:46.297Z,14.35
2022-11-28T05:17:13.939Z,13.15
2022-11-28T05:19:41.167Z,12.43
2022-11-28T05:22:08.168Z,14.05
2022-11-28T05:24:37.236Z,12.55
2022-11-28T05:27:04.528Z,12.75
2022-11-28T05:29:31.937Z,12.20
2022-11-28T05:31:59.043Z,12.77
2022-11-28T05:34:26.167Z,14.13
2022-11-28T05:36:53.241Z,12.57
2022-11-28T05:39:20.277Z,13.05
2022-11-28T05:41:47.332Z,12.68
2022-11-28T05:44:14.396Z,11.95
2022-11-28T05:46:41.393Z,12.30
2022-11-28T05:49:10.489Z,10.80
2022-11-28T05:51:37.460Z,13.57
2022-11-28T05:54:05.594Z,13.10
2022-11-28T05:56:33.795Z,12.98
2022-11-28T05:59:03.209Z,13.65
2022-11-28T06:01:30.633Z,13.07
2022-11-28T06:04:00.991Z,14.13
2022-11-28T06:06:32.581Z,13.20
2022-11-28T06:09:00.840Z,11.77
2022-11-28T06:11:31.315Z,13.57
2022-11-28T06:13:58.468Z,13.80
2022-11-28T06:16:29.596Z,11.70
2022-11-28T06:19:04.557Z,11.23
2022-11-28T06:37:07.466Z,11.85
2022-11-28T07:05:07.790Z,12.02
2022-11-28T07:21:36.258Z,11.32
2022-11-28T07:25:24.735Z,12.60
2022-11-28T07:28:43.703Z,11.50
2022-11-28T07:31:15.534Z,11.70
2022-11-28T07:33:45.930Z,9.57
2022-11-28T08:32:50.437Z,10.85
2022-11-28T08:35:27.865Z,9.40
2022-11-28T08:38:01.749Z,9.27
2022-11-28T08:40:34.001Z,9.10
2022-11-28T08:43:01.724Z,9.80
2022-11-28T08:45:28.907Z,8.82
2022-11-28T08:47:56.572Z,8.23
2022-11-28T08:50:24.845Z,8.70
2022-11-28T08:52:52.034Z,8.80
2022-11-28T08:55:31.881Z,9.57
2022-11-28T08:58:04.372Z,9.25
2022-11-28T09:00:31.918Z,7.65
2022-11-28T09:02:59.143Z,8.43
2022-11-28T09:05:27.705Z,8.88
2022-11-28T09:07:55.975Z,7.97
2022-11-28T09:10:25.022Z,8.73
2022-11-28T09:12:53.080Z,8.55
2022-11-28T09:15:20.399Z,10.07
2022-11-28T09:17:47.562Z,8.43
2022-11-28T09:20:16.649Z,9.55
2022-11-28T09:22:43.935Z,9.18
2022-11-28T09:25:44.059Z,7.47
2022-11-28T09:28:11.387Z,7.95
2022-11-28T09:30:38.602Z,9.18
2022-11-28T09:33:06.881Z,8.35
2022-11-28T09:35:34.358Z,8.18
2022-11-28T09:38:01.791Z,9.57
2022-11-28T09:41:57.968Z,9.20
2022-11-28T09:44:57.147Z,10.20
2022-11-28T09:47:31.353Z,8.98
2022-11-28T09:50:22.582Z,9.40
2022-11-28T09:53:03.994Z,8.82
2022-11-28T09:55:42.868Z,10.15
2022-11-28T09:58:26.792Z,11.43
2022-11-28T10:01:18.927Z,10.45
2022-11-28T10:04:23.407Z,10.53
2022-11-28T10:07:09.245Z,9.73
2022-11-28T10:10:02.615Z,10.70
2022-11-28T10:12:54.774Z,8.60
2022-11-28T10:15:39.351Z,10.30
2022-11-28T10:18:22.838Z,10.25
2022-11-28T10:20:57.843Z,10.20
2022-11-28T10:23:35.965Z,11.90
2022-11-28T10:26:15.036Z,11.50
2022-11-28T10:28:48.437Z,10.35
2022-11-28T10:31:29.849Z,11.50
2022-11-28T10:34:19.259Z,12.32
2022-11-28T10:37:05.166Z,9.98
2022-11-28T10:39:35.129Z,12.57
2022-11-28T10:42:16.490Z,11.82
2022-11-28T10:45:10.426Z,12.57
2022-11-28T10:48:38.393Z,12.38
2022-11-28T10:51:24.007Z,10.73
2022-11-28T10:54:18.693Z,12.88
2022-11-28T10:56:54.850Z,12.10
2022-11-28T10:59:55.415Z,10.50
2022-11-28T11:02:30.788Z,12.85
2022-11-28T11:04:58.158Z,11.57
2022-11-28T11:07:32.383Z,10.27
2022-11-28T11:10:27.143Z,12.55
2022-11-28T11:12:54.792Z,12.45
2022-11-28T11:15:30.088Z,12.45
2022-11-28T11:18:01.181Z,12.55
2022-11-28T11:20:35.667Z,12.50
2022-11-28T11:23:16.721Z,12.10
2022-11-28T11:26:11.727Z,12.05
2022-11-28T11:28:46.555Z,12.65
2022-11-28T11:31:33.533Z,12.32
2022-11-28T11:34:18.192Z,12.52
2022-11-28T11:36:46.819Z,11.13
2022-11-28T11:39:14.204Z,13.02
2022-11-28T11:42:10.657Z,12.60
2022-11-28T11:44:38.437Z,10.52
2022-11-28T11:47:10.733Z,11.32
2022-11-28T11:49:46.155Z,11.35
2022-11-28T11:52:13.967Z,10.27
2022-11-28T11:54:58.737Z,11.70
2022-11-28T11:57:35.815Z,13.05
2022-11-28T12:00:26.737Z,11.88
2022-11-28T12:03:05.024Z,12.85
2022-11-28T12:06:13.145Z,13.23
2022-11-28T12:08:54.747Z,12.23
2022-11-28T12:11:37.435Z,12.60
2022-11-28T12:14:31.621Z,12.52
2022-11-28T12:17:59.266Z,13.43
2022-11-28T12:21:01.431Z,12.02
2022-11-28T12:24:08.132Z,12.73
2022-11-28T12:27:29.772Z,13.45
2022-11-28T12:33:28.080Z,12.93
2022-11-28T12:36:36.158Z,12.32
2022-11-28T12:39:12.547Z,11.70
2022-11-28T12:52:51.992Z,10.95
2022-11-28T12:55:57.331Z,13.35
2022-11-28T12:59:05.055Z,13.15
2022-11-28T13:01:45.979Z,11.40
2022-11-28T13:04:35.756Z,12.48
2022-11-28T13:07:49.667Z,13.68
2022-11-28T13:10:45.646Z,12.20
2022-11-28T13:13:32.762Z,12.27
2022-11-28T13:16:27.353Z,12.95
2022-11-28T13:19:17.437Z,14.13
2022-11-28T13:22:33.963Z,13.98
2022-11-28T13:25:42.354Z,12.80
2022-11-28T13:28:09.563Z,14.23
2022-11-28T13:30:48.695Z,13.95
2022-11-28T13:33:48.417Z,13.55
2022-11-28T13:39:54.770Z,14.55
2022-11-28T13:43:03.533Z,13.43
2022-11-28T13:45:56.088Z,14.52
2022-11-28T13:54:20.303Z,13.25
2022-11-28T13:57:24.056Z,13.95
2022-11-28T14:47:57.586Z,14.65
2022-11-28T14:51:01.637Z,15.95
2022-11-28T14:54:13.162Z,14.60
2022-11-28T14:57:38.916Z,13.95
2022-11-28T15:00:49.385Z,14.77
2022-11-28T15:04:11.732Z,15.43
2022-11-28T15:15:55.996Z,12.57
2022-11-28T15:18:57.584Z,14.85
2022-11-28T15:25:45.577Z,14.68
2022-11-28T15:31:55.326Z,13.65
2022-11-28T15:34:35.305Z,12.47
2022-11-28T15:37:22.321Z,12.55
2022-11-28T15:40:28.811Z,14.27
2022-11-28T15:43:00.808Z,15.82
2022-11-28T15:45:36.473Z,16.08
2022-11-28T15:48:40.446Z,14.20
2022-11-28T15:51:45.377Z,15.10
2022-11-28T15:55:17.781Z,14.48
2022-11-28T15:58:31.728Z,14.32
2022-11-28T16:01:38.700Z,14.68
2022-11-28T16:04:20.687Z,14.63
2022-11-28T16:07:15.693Z,14.40
2022-11-28T16:10:30.997Z,14.75
2022-11-28T16:13:41.617Z,16.10
2022-11-28T16:20:14.183Z,15.85
2022-11-28T16:27:58.482Z,15.63
2022-11-28T16:30:48.319Z,15.85
2022-11-28T16:33:44.371Z,16.05
2022-11-28T16:36:49.375Z,13.50
2022-11-28T16:40:01.320Z,15.57
2022-11-28T16:42:47.872Z,15.75
2022-11-28T16:45:29.234Z,16.00
2022-11-28T16:48:20.964Z,15.88
2022-11-28T16:51:25.849Z,15.80
2022-11-28T16:53:55.711Z,15.70
2022-11-28T16:56:31.064Z,13.13
2022-11-28T16:59:17.664Z,15.15
2022-11-28T17:01:51.846Z,15.20
2022-11-28T17:04:30.168Z,14.23
2022-11-28T17:07:05.593Z,17.00
2022-11-28T17:09:34.020Z,16.23
2022-11-28T17:12:23.858Z,16.85
2022-11-28T17:14:52.587Z,16.80
2022-11-28T17:17:26.906Z,16.00
2022-11-28T17:19:57.034Z,15.27
2022-11-28T17:22:47.827Z,16.73
2022-11-28T17:25:22.101Z,16.75
2022-11-28T17:27:49.815Z,15.63
2022-11-28T17:30:20.133Z,18.42
2022-11-28T17:32:48.240Z,17.00
2022-11-28T17:39:05.523Z,14.38
2022-11-28T17:41:41.772Z,16.95
2022-11-28T17:44:28.235Z,18.48
2022-11-28T17:47:09.157Z,16.10
2022-11-28T17:49:37.485Z,18.52
2022-11-28T17:52:06.166Z,18.88
2022-11-28T17:54:35.138Z,16.38
2022-11-28T17:57:05.831Z,16.95
2022-11-28T17:59:57.905Z,17.90
2022-11-28T18:02:32.678Z,15.88
2022-11-28T18:05:04.989Z,16.10
2022-11-28T18:07:50.914Z,16.33
2022-11-28T18:10:18.812Z,15.85
2022-11-28T18:12:50.315Z,15.95
2022-11-28T18:15:17.988Z,17.00
2022-11-28T18:17:45.572Z,15.98
2022-11-28T18:20:13.635Z,18.35
2022-11-28T18:22:47.400Z,16.38
2022-11-28T18:25:14.841Z,16.77
2022-11-28T18:27:42.327Z,15.63
2022-11-28T18:30:10.778Z,18.65
2022-11-28T18:32:38.073Z,18.45
2022-11-28T18:35:07.847Z,18.77
2022-11-28T18:37:38.697Z,18.98
2022-11-28T18:40:09.538Z,18.17
2022-11-28T18:42:37.926Z,18.63
2022-11-28T18:45:05.878Z,18.60
2022-11-28T18:47:35.950Z,17.20
2022-11-28T18:50:03.601Z,18.45
2022-11-28T18:52:30.790Z,17.85
2022-11-28T18:54:58.723Z,20.10
2022-11-28T18:57:31.067Z,19.48
2022-11-28T19:02:29.209Z,25.50
2022-11-28T19:04:57.116Z,20.60
2022-11-28T19:07:25.376Z,19.98
2022-11-28T19:09:53.310Z,20.27
2022-11-28T19:12:20.831Z,18.65
2022-11-28T19:14:48.248Z,17.73
2022-11-28T19:17:16.240Z,24.98
2022-11-28T19:19:44.848Z,19.23
2022-11-28T19:22:12.205Z,17.95
2022-11-28T19:24:39.510Z,19.67
2022-11-28T19:27:12.558Z,17.98
2022-11-28T19:29:43.188Z,20.35
2022-11-28T19:32:10.880Z,20.05
2022-11-28T19:34:38.170Z,20.23
2022-11-28T19:37:05.437Z,21.20
2022-11-28T19:39:32.859Z,19.55
2022-11-28T19:42:00.514Z,20.17
2022-11-28T19:44:29.388Z,20.77
2022-11-28T19:46:56.989Z,20.48
2022-11-28T19:49:25.011Z,21.30
2022-11-28T19:51:54.403Z,19.67
2022-11-28T19:54:23.053Z,21.98
2022-11-28T19:57:24.251Z,19.90
2022-11-28T20:00:32.984Z,20.42
2022-11-28T20:03:46.191Z,20.85
2022-11-28T20:06:37.706Z,19.85
2022-11-28T20:09:30.770Z,20.05
2022-11-28T20:11:58.546Z,18.83
2022-11-28T20:14:27.809Z,20.30
2022-11-28T20:16:55.385Z,19.35
2022-11-28T20:19:23.129Z,20.38
2022-11-28T20:21:53.468Z,20.08
2022-11-28T20:24:24.301Z,19.08
2022-11-28T20:26:51.987Z,19.13
2022-11-28T20:29:26.871Z,19.60
2022-11-28T20:32:22.460Z,19.08
2022-11-28T20:38:29.270Z,19.10
2022-11-28T20:41:26.982Z,19.85
2022-11-28T21:14:38.939Z,19.15
2022-11-28T21:17:06.497Z,20.73
2022-11-28T21:19:33.754Z,20.80
2022-11-28T21:22:01.127Z,20.55
2022-11-28T21:24:28.567Z,20.23
2022-11-28T21:38:00.708Z,15.95
2022-11-28T21:40:29.056Z,17.67
2022-11-28T21:42:57.609Z,16.80
2022-11-28T21:45:34.567Z,18.25
2022-11-28T21:48:03.249Z,17.70
2022-11-28T21:51:48.133Z,17.95
2022-11-28T21:54:15.558Z,16.83
2022-11-28T21:56:46.701Z,16.67
2022-11-28T21:59:24.052Z,17.92
2022-11-28T22:02:07.201Z,16.27
2022-11-28T22:04:37.551Z,17.48
2022-11-28T22:07:30.235Z,17.35
2022-11-28T22:24:17.425Z,16.08
2022-11-28T22:26:45.267Z,15.93
2022-11-28T22:29:14.756Z,15.95
2022-11-28T22:31:42.972Z,16.35
2022-11-28T22:34:10.835Z,16.40
2022-11-28T22:36:38.655Z,16.88
2022-11-28T22:39:11.828Z,16.08
2022-11-28T22:41:39.509Z,16.63
2022-11-28T22:44:06.843Z,16.88
2022-11-28T22:46:39.335Z,16.58
2022-11-28T22:49:10.282Z,16.15
2022-11-28T22:51:40.757Z,17.00
2022-11-28T22:54:17.617Z,17.00
2022-11-28T22:56:44.995Z,15.95
2022-11-28T22:59:16.239Z,17.95
2022-11-28T23:01:43.788Z,17.10
2022-11-28T23:04:11.736Z,16.02
2022-11-28T23:06:40.139Z,17.23
2022-11-28T23:09:09.186Z,18.83
2022-11-28T23:11:38.659Z,16.52
2022-11-28T23:14:07.041Z,17.17
2022-11-28T23:16:38.150Z,17.40
2022-11-28T23:19:15.568Z,16.65
2022-11-28T23:21:47.266Z,16.98
2022-11-28T23:24:19.189Z,16.40
2022-11-28T23:26:48.299Z,16.63
2022-11-28T23:29:17.287Z,16.40
2022-11-28T23:31:47.013Z,17.35
2022-11-28T23:34:15.676Z,16.55
2022-11-28T23:36:46.750Z,15.40
2022-11-28T23:39:21.320Z,15.38
2022-11-28T23:41:50.205Z,15.70
2022-11-28T23:44:19.722Z,15.77
2022-11-28T23:46:48.564Z,15.25
2022-11-28T23:49:16.072Z,16.23
2022-11-28T23:51:43.445Z,16.83
2022-11-28T23:54:12.715Z,17.40
2022-11-28T23:56:41.940Z,16.63
2022-11-28T23:59:11.564Z,16.83
